»·PEaware :: N8727N KSBP-KSBA

N8727N :: KSBP-KSBA

FLIGHT INFORMATION

Flight Status: Arrived
Operator: Privately registered:
United States
More flights under this callsign
Pilot: Jonas V. (19294)
Aircraft: BEECH AIRCRAFT BARON
(BE58)
More flights by this aircraft type
Origin: KSBP San Luis Co Regl
United States
Destination: KSBA Santa Barbara Mun
United States
More flights between these airports :: More routes between these airports
Route: CREPE3 MQO V27 AFOXY
File this flight plan on PilotEdge
Remarks:
Altitude:
(Current/Filed)
7,000ft
Speed:
(Current/Filed)
205kts
Departed: 29-Jan-19 02:19 PM
Arrived: 29-Jan-19 02:57 PM
Distance/Time
Traveled:
62nm/0:37
Distance/Time
To Go:
Arrived

Flight Plot

Page will automatically refresh every two minutes.

Flight plan parsing failed; only flown route is shown


Map Options




Map Legend


Flown Route
Filed Route
Departure Airport
Arrival Airport
Navaid (VOR, NDB)
Fix

Horizontal Profiles

Position Reports

Time Latitude Longitude Heading Altitude Ground
Speed
29-Jan-19 14:01 35.235965 -120.635448 303 215ft 0kts
29-Jan-19 14:02 35.235965 -120.635448 303 215ft 0kts
29-Jan-19 14:03 35.235965 -120.635448 303 215ft 0kts
29-Jan-19 14:04 35.235965 -120.635448 303 215ft 0kts
29-Jan-19 14:05 35.235965 -120.635448 303 215ft 0kts
29-Jan-19 14:06 35.235965 -120.635448 303 215ft 0kts
29-Jan-19 14:07 35.235965 -120.635448 303 215ft 0kts
29-Jan-19 14:08 35.235965 -120.635448 303 215ft 0kts
29-Jan-19 14:09 35.235965 -120.635448 303 215ft 0kts
29-Jan-19 14:10 35.235965 -120.635448 303 215ft 0kts
29-Jan-19 14:11 35.235965 -120.635448 303 215ft 0kts
29-Jan-19 14:12 35.235965 -120.635448 303 215ft 0kts
29-Jan-19 14:13 35.235965 -120.635448 303 215ft 0kts
29-Jan-19 14:14 35.234043 -120.633333 124 215ft 26kts
29-Jan-19 14:15 35.233259 -120.632334 192 215ft 0kts
29-Jan-19 14:16 35.233259 -120.632334 192 215ft 0kts
29-Jan-19 14:17 35.233259 -120.632334 192 215ft 0kts
29-Jan-19 14:18 35.235027 -120.636923 305 215ft 87kts
29-Jan-19 14:19 35.252807 -120.665920 310 1732ft 122kts
29-Jan-19 14:20 35.265634 -120.694472 265 3295ft 122kts
29-Jan-19 14:21 35.274734 -120.723510 325 4695ft 122kts
29-Jan-19 14:22 35.294704 -120.748259 306 5999ft 121kts
29-Jan-19 14:23 35.311547 -120.775875 304 7145ft 121kts
29-Jan-19 14:24 35.329446 -120.805885 305 6973ft 135kts
29-Jan-19 14:25 35.342828 -120.845589 243 7007ft 174kts
29-Jan-19 14:26 35.307210 -120.840212 138 7006ft 202kts
29-Jan-19 14:27 35.274435 -120.801720 137 7001ft 204kts
29-Jan-19 14:28 35.249044 -120.758434 134 7006ft 204kts
29-Jan-19 14:29 35.214322 -120.724028 144 7001ft 204kts
29-Jan-19 14:30 35.178221 -120.690260 144 7001ft 204kts
29-Jan-19 14:31 35.142727 -120.657078 144 7002ft 204kts
29-Jan-19 14:32 35.106061 -120.622834 144 7005ft 203kts
29-Jan-19 14:33 35.068491 -120.587787 144 7009ft 203kts
29-Jan-19 14:34 35.033685 -120.555358 144 7013ft 202kts
29-Jan-19 14:35 34.998702 -120.522797 144 7017ft 202kts
29-Jan-19 14:36 34.963009 -120.489609 144 7019ft 203kts
29-Jan-19 14:37 34.927098 -120.456260 144 7020ft 203kts
29-Jan-19 14:38 34.892987 -120.424625 144 6945ft 205kts
29-Jan-19 14:39 34.855566 -120.389937 144 6271ft 204kts
29-Jan-19 14:40 34.815572 -120.352925 144 5533ft 200kts
29-Jan-19 14:41 34.778235 -120.318456 146 5039ft 187kts
29-Jan-19 14:42 34.741068 -120.284123 146 5035ft 195kts
29-Jan-19 14:43 34.699846 -120.246080 145 5025ft 190kts
29-Jan-19 14:44 34.659952 -120.209323 145 5024ft 189kts
29-Jan-19 14:45 34.620186 -120.172773 146 4991ft 189kts
29-Jan-19 14:46 34.576009 -120.146694 163 4490ft 188kts
29-Jan-19 14:47 34.533039 -120.129457 165 4439ft 178kts
29-Jan-19 14:48 34.489725 -120.113665 163 4384ft 174kts
29-Jan-19 14:49 34.444773 -120.096453 167 3364ft 167kts
29-Jan-19 14:50 34.423187 -120.061036 89 2380ft 138kts
29-Jan-19 14:51 34.424085 -120.018578 89 1799ft 125kts
29-Jan-19 14:52 34.424828 -119.980553 87 1779ft 128kts
29-Jan-19 14:53 34.425540 -119.944428 91 1196ft 129kts
29-Jan-19 14:54 34.426652 -119.909267 86 577ft 127kts
29-Jan-19 14:55 34.427109 -119.873103 88 338ft 123kts
29-Jan-19 14:56 34.427961 -119.846601 57 16ft 25kts
29-Jan-19 14:57 34.430281 -119.840945 63 16ft 21kts
29-Jan-19 14:58 34.432878 -119.836102 277 16ft 14kts

Navigation Log

Ident Type
Flight plan parsing failed, navigation log unavailable